Time;durP1;ratioP1;P1;durP2;ratioP2;P2;SDS_P1;SDS_P2;PMS_P1;PMS_P2;Temp;Humidity;BMP_temperature;BMP_pressure;BME280_temperature;BME280_humidity;BME280_pressure;Samples;Min_cycle;Max_cycle;Signal;HPM_P1;HPM_P2
2024/02/15 00:02:04;;;;;;;;;;;;;;;;;;5116877;28;20291;-69
2024/02/15 00:04:31;;;;;;;;;;;;;;;;;;5117734;28;19908;-69
2024/02/15 00:06:57;;;;;;;;;;;;;;;;;;5118327;28;19907;-69
2024/02/15 00:09:23;;;;;;;;;;;;;;;;;;5117981;28;19915;-69
2024/02/15 00:11:49;;;;;;;;;;;;;;;;;;5117613;28;20364;-69
2024/02/15 00:14:15;;;;;;;;;;;;;;;;;;5117878;27;19907;-69
2024/02/15 00:16:41;;;;;;;;;;;;;;;;;;5117861;28;19907;-70
2024/02/15 00:19:07;;;;;;;;;;;;;;;;;;5117428;28;19907;-68
2024/02/15 00:21:33;;;;;;;;;;;;;;;;;;5116439;28;20022;-68
2024/02/15 00:24:00;;;;;;;;;;;;;;;;;;5117319;28;19943;-69
2024/02/15 00:26:26;;;;;;;;;;;;;;;;;;5117625;28;20321;-68
2024/02/15 00:28:52;;;;;;;;;;;;;;;;;;5116276;28;19940;-68
2024/02/15 00:31:18;;;;;;;;;;;;;;;;;;5116929;28;19923;-70
2024/02/15 00:33:44;;;;;;;;;;;;;;;;;;5117548;28;20303;-69
2024/02/15 00:36:10;;;;;;;;;;;;;;;;;;5118038;28;19908;-69
2024/02/15 00:38:36;;;;;;;;;;;;;;;;;;5117044;28;20023;-69
2024/02/15 00:41:02;;;;;;;;;;;;;;;;;;5117386;28;19908;-69
2024/02/15 00:43:28;;;;;;;;;;;;;;;;;;5117319;28;19907;-69
2024/02/15 00:45:54;;;;;;;;;;;;;;;;;;5117019;27;20380;-69
2024/02/15 00:48:20;;;;;;;;;;;;;;;;;;5115925;28;19947;-69
2024/02/15 00:50:46;;;;;;;;;;;;;;;;;;5117652;28;20363;-69
2024/02/15 00:53:12;;;;;;;;;;;;;;;;;;5116728;28;20072;-69
2024/02/15 00:55:38;;;;;;;;;;;;;;;;;;5117052;28;19908;-69
2024/02/15 00:58:04;;;;;;;;;;;;;;;;;;5116918;28;19915;-69
2024/02/15 01:00:30;;;;;;;;;;;;;;;;;;5116517;28;20002;-69
2024/02/15 01:02:56;;;;;;;;;;;;;;;;;;5116415;28;19911;-69
2024/02/15 01:05:24;;;;;;;;;;;;;;;;;;5116858;28;20020;-69
2024/02/15 01:07:50;;;;;;;;;;;;;;;;;;5116466;28;20358;-69
2024/02/15 01:10:16;;;;;;;;;;;;;;;;;;5115326;28;19940;-67
2024/02/15 01:12:42;;;;;;;;;;;;;;;;;;5116907;28;19908;-68
2024/02/15 01:15:08;;;;;;;;;;;;;;;;;;5114987;28;19915;-68
2024/02/15 01:17:34;;;;;;;;;;;;;;;;;;5116632;28;19908;-68
2024/02/15 01:20:00;;;;;;;;;;;;;;;;;;5116598;28;19944;-67
2024/02/15 01:22:26;;;;;;;;;;;;;;;;;;5116125;28;19912;-67
2024/02/15 01:24:52;;;;;;;;;;;;;;;;;;5116488;28;19908;-67
2024/02/15 01:27:18;;;;;;;;;;;;;;;;;;5114763;28;19930;-68
2024/02/15 01:29:45;;;;;;;;;;;;;;;;;;5116162;28;19934;-68
2024/02/15 01:32:11;;;;;;;;;;;;;;;;;;5116311;28;20412;-68
2024/02/15 01:34:37;;;;;;;;;;;;;;;;;;5116152;28;20706;-68
2024/02/15 01:37:03;;;;;;;;;;;;;;;;;;5116616;28;19953;-68
2024/02/15 01:39:29;;;;;;;;;;;;;;;;;;5116179;28;19915;-68
2024/02/15 01:41:56;;;;;;;;;;;;;;;;;;5115747;27;19995;-69
2024/02/15 01:44:24;;;;;;;;;;;;;;;;;;5114797;28;20284;-68
2024/02/15 01:46:52;;;;;;;;;;;;;;;;;;5116093;28;19933;-68
2024/02/15 01:49:18;;;;;;;;;;;;;;;;;;5115539;28;19947;-68
2024/02/15 01:51:44;;;;;;;;;;;;;;;;;;5114594;28;20398;-68
2024/02/15 01:54:10;;;;;;;;;;;;;;;;;;5116422;28;20248;-68
2024/02/15 01:56:36;;;;;;;;;;;;;;;;;;5114099;28;19955;-68
2024/02/15 01:59:02;;;;;;;;;;;;;;;;;;5115727;28;20375;-68
2024/02/15 02:01:28;;;;;;;;;;;;;;;;;;5115697;28;19927;-68
2024/02/15 02:03:54;;;;;;;;;;;;;;;;;;5114023;28;19908;-68
2024/02/15 02:06:20;;;;;;;;;;;;;;;;;;5114372;28;19908;-68
2024/02/15 02:08:46;;;;;;;;;;;;;;;;;;5115657;28;19919;-69
2024/02/15 02:11:12;;;;;;;;;;;;;;;;;;5115100;28;19915;-69
2024/02/15 02:13:38;;;;;;;;;;;;;;;;;;5115535;28;19953;-69
2024/02/15 02:16:04;;;;;;;;;;;;;;;;;;5113705;28;20372;-69
2024/02/15 02:18:30;;;;;;;;;;;;;;;;;;5115115;28;20393;-68
2024/02/15 02:20:56;;;;;;;;;;;;;;;;;;5115849;28;19995;-69
2024/02/15 02:23:22;;;;;;;;;;;;;;;;;;5115294;28;20387;-68
2024/02/15 02:25:49;;;;;;;;;;;;;;;;;;5114812;28;19907;-69
2024/02/15 02:28:16;;;;;;;;;;;;;;;;;;5115464;28;19907;-69
2024/02/15 02:30:45;;;;;;;;;;;;;;;;;;5114503;28;20330;-69
2024/02/15 02:33:11;;;;;;;;;;;;;;;;;;5115074;28;20303;-69
2024/02/15 02:35:37;;;;;;;;;;;;;;;;;;5113818;28;19960;-69
2024/02/15 02:38:03;;;;;;;;;;;;;;;;;;5114649;28;19998;-69
2024/02/15 02:40:29;;;;;;;;;;;;;;;;;;5115504;28;19907;-69
2024/02/15 02:43:00;;;;;;;;;;;;;;;;;;5114895;28;19907;-69
2024/02/15 02:45:26;;;;;;;;;;;;;;;;;;5114638;28;19935;-69
2024/02/15 02:47:52;;;;;;;;;;;;;;;;;;5114856;28;19908;-69
2024/02/15 02:50:18;;;;;;;;;;;;;;;;;;5114944;28;19911;-69
2024/02/15 02:52:44;;;;;;;;;;;;;;;;;;5114713;28;20307;-69
2024/02/15 02:55:11;;;;;;;;;;;;;;;;;;5114772;28;19933;-69
2024/02/15 02:57:40;;;;;;;;;;;;;;;;;;5114640;28;20344;-69
2024/02/15 03:00:08;;;;;;;;;;;;;;;;;;5114221;28;19919;-69
2024/02/15 03:02:34;;;;;;;;;;;;;;;;;;5114617;28;19908;-69
2024/02/15 03:05:02;;;;;;;;;;;;;;;;;;5114570;28;19914;-69
2024/02/15 03:07:28;;;;;;;;;;;;;;;;;;5114128;28;19961;-69
2024/02/15 03:09:54;;;;;;;;;;;;;;;;;;5114963;28;20348;-69
2024/02/15 03:12:20;;;;;;;;;;;;;;;;;;5114439;28;20417;-69
2024/02/15 03:14:46;;;;;;;;;;;;;;;;;;5114067;28;20280;-69
2024/02/15 03:17:12;;;;;;;;;;;;;;;;;;5114481;28;19931;-69
2024/02/15 03:19:38;;;;;;;;;;;;;;;;;;5114659;28;19915;-69
2024/02/15 03:22:04;;;;;;;;;;;;;;;;;;5113943;28;19915;-69
2024/02/15 03:24:30;;;;;;;;;;;;;;;;;;5114518;28;19907;-69
2024/02/15 03:26:56;;;;;;;;;;;;;;;;;;5113997;28;19947;-69
2024/02/15 03:29:22;;;;;;;;;;;;;;;;;;5114272;28;20287;-69
2024/02/15 03:31:49;;;;;;;;;;;;;;;;;;5114073;28;19930;-68
2024/02/15 03:34:15;;;;;;;;;;;;;;;;;;5113897;28;19907;-69
2024/02/15 03:36:41;;;;;;;;;;;;;;;;;;5114763;28;19915;-69
2024/02/15 03:39:08;;;;;;;;;;;;;;;;;;5114394;28;19907;-69
2024/02/15 03:41:34;;;;;;;;;;;;;;;;;;5113814;28;20352;-69
2024/02/15 03:44:00;;;;;;;;;;;;;;;;;;5114454;28;19908;-69
2024/02/15 03:46:27;;;;;;;;;;;;;;;;;;5112822;28;19966;-69
2024/02/15 03:48:52;;;;;;;;;;;;;;;;;;5113769;28;19912;-69
2024/02/15 03:51:20;;;;;;;;;;;;;;;;;;5113972;28;19969;-69
2024/02/15 03:53:47;;;;;;;;;;;;;;;;;;5112774;28;20458;-69
2024/02/15 03:56:13;;;;;;;;;;;;;;;;;;5112340;28;19953;-69
2024/02/15 03:58:39;;;;;;;;;;;;;;;;;;5113941;28;19911;-69
2024/02/15 04:01:06;;;;;;;;;;;;;;;;;;5113949;28;19914;-69
2024/02/15 04:03:33;;;;;;;;;;;;;;;;;;5112237;28;20265;-69
2024/02/15 04:06:00;;;;;;;;;;;;;;;;;;5114441;28;19907;-69
2024/02/15 04:08:26;;;;;;;;;;;;;;;;;;5113904;28;19915;-69
2024/02/15 04:10:52;;;;;;;;;;;;;;;;;;5113416;28;19911;-69
2024/02/15 04:13:18;;;;;;;;;;;;;;;;;;5113897;28;19912;-69
2024/02/15 04:15:46;;;;;;;;;;;;;;;;;;5113810;28;20263;-69
2024/02/15 04:18:13;;;;;;;;;;;;;;;;;;5113420;28;19951;-69
2024/02/15 04:20:44;;;;;;;;;;;;;;;;;;5113753;28;19908;-69
2024/02/15 04:23:10;;;;;;;;;;;;;;;;;;5113696;28;19907;-69
2024/02/15 04:25:36;;;;;;;;;;;;;;;;;;5112459;28;19915;-69
2024/02/15 04:28:03;;;;;;;;;;;;;;;;;;5114038;28;19912;-69
2024/02/15 04:30:30;;;;;;;;;;;;;;;;;;5113019;28;19920;-69
2024/02/15 04:32:55;;;;;;;;;;;;;;;;;;5113679;28;20002;-70
2024/02/15 04:35:22;;;;;;;;;;;;;;;;;;5113921;28;20049;-70
2024/02/15 04:37:49;;;;;;;;;;;;;;;;;;5113901;28;20356;-69
2024/02/15 04:40:15;;;;;;;;;;;;;;;;;;5117677;28;19908;-70
2024/02/15 04:42:44;;;;;;;;;;;;;;;;;;5117292;28;20037;-69
2024/02/15 04:45:12;;;;;;;;;;;;;;;;;;5116943;28;20010;-69
2024/02/15 04:47:40;;;;;;;;;;;;;;;;;;5117198;28;19981;-69
2024/02/15 04:50:06;;;;;;;;;;;;;;;;;;5117144;28;19919;-69
2024/02/15 04:52:31;;;;;;;;;;;;;;;;;;5115456;28;20276;-69
2024/02/15 04:55:00;;;;;;;;;;;;;;;;;;5117616;28;20305;-69
2024/02/15 04:57:30;;;;;;;;;;;;;;;;;;5117058;28;19915;-67
2024/02/15 04:59:56;;;;;;;;;;;;;;;;;;5116557;27;19915;-69
2024/02/15 05:02:24;;;;;;;;;;;;;;;;;;5115570;28;19914;-68
2024/02/15 05:04:56;;;;;;;;;;;;;;;;;;5116865;28;20261;-68
2024/02/15 05:07:22;;;;;;;;;;;;;;;;;;5116474;28;19907;-67
2024/02/15 05:09:48;;;;;;;;;;;;;;;;;;5115445;28;19920;-68
2024/02/15 05:12:14;;;;;;;;;;;;;;;;;;5116639;28;20018;-68
2024/02/15 05:14:40;;;;;;;;;;;;;;;;;;5114964;28;19919;-68
2024/02/15 05:17:09;;;;;;;;;;;;;;;;;;5116613;28;19911;-67
2024/02/15 05:19:35;;;;;;;;;;;;;;;;;;5116499;28;20017;-68
2024/02/15 05:22:05;;;;;;;;;;;;;;;;;;5115169;28;19912;-68
2024/02/15 05:24:31;;;;;;;;;;;;;;;;;;5114897;28;20275;-68
2024/02/15 05:26:57;;;;;;;;;;;;;;;;;;5113997;28;20354;-68
2024/02/15 05:29:23;;;;;;;;;;;;;;;;;;5114475;28;19939;-67
2024/02/15 05:31:51;;;;;;;;;;;;;;;;;;5114233;28;19919;-68
2024/02/15 05:34:17;;;;;;;;;;;;;;;;;;5113756;28;20375;-68
2024/02/15 05:36:43;;;;;;;;;;;;;;;;;;5114379;28;19953;-68
2024/02/15 05:39:11;;;;;;;;;;;;;;;;;;5114343;28;20316;-68
2024/02/15 05:41:37;;;;;;;;;;;;;;;;;;5113968;28;19943;-68
2024/02/15 05:44:07;;;;;;;;;;;;;;;;;;5114097;28;19907;-68
2024/02/15 05:46:37;;;;;;;;;;;;;;;;;;5115686;28;19961;-68
2024/02/15 05:49:04;;;;;;;;;;;;;;;;;;5115830;28;19912;-68
2024/02/15 05:51:33;;;;;;;;;;;;;;;;;;5116150;28;19923;-68
2024/02/15 05:54:00;;;;;;;;;;;;;;;;;;5115981;28;20283;-68
2024/02/15 05:56:29;;;;;;;;;;;;;;;;;;5115703;28;19918;-68
2024/02/15 05:58:55;;;;;;;;;;;;;;;;;;5115805;28;19908;-68
2024/02/15 06:01:21;;;;;;;;;;;;;;;;;;5116048;28;19907;-68
2024/02/15 06:03:48;;;;;;;;;;;;;;;;;;5115504;28;20000;-68
2024/02/15 06:06:14;;;;;;;;;;;;;;;;;;5115768;28;20279;-70
2024/02/15 06:08:39;;;;;;;;;;;;;;;;;;5115326;28;19996;-68
2024/02/15 06:11:05;;;;;;;;;;;;;;;;;;5114272;28;19926;-69
2024/02/15 06:13:31;;;;;;;;;;;;;;;;;;5115541;28;19915;-68
2024/02/15 06:15:57;;;;;;;;;;;;;;;;;;5114865;28;19935;-69
2024/02/15 06:18:28;;;;;;;;;;;;;;;;;;5115718;28;19914;-68
2024/02/15 06:20:56;;;;;;;;;;;;;;;;;;5107000;28;19930;-68
2024/02/15 06:23:22;;;;;;;;;;;;;;;;;;5094645;28;20310;-67
2024/02/15 06:25:48;;;;;;;;;;;;;;;;;;5090663;28;19912;-67
2024/02/15 06:42:00;;;;;;;;;;;;;;;;;;5101348;28;19934;-68
2024/02/15 06:44:26;;;;;;;;;;;;;;;;;;5099994;28;19957;-68
2024/02/15 06:46:52;;;;;;;;;;;;;;;;;;5090499;28;19916;-70
2024/02/15 06:49:19;;;;;;;;;;;;;;;;;;5094113;28;19912;-69
2024/02/15 06:51:45;;;;;;;;;;;;;;;;;;5105718;28;19923;-69
2024/02/15 06:54:11;;;;;;;;;;;;;;;;;;5082521;28;20283;-69
2024/02/15 06:56:37;;;;;;;;;;;;;;;;;;5097297;28;19938;-69
2024/02/15 06:59:03;;;;;;;;;;;;;;;;;;5088731;28;19912;-68
2024/02/15 07:01:30;;;;;;;;;;;;;;;;;;5103330;28;20562;-67
2024/02/15 07:03:56;;;;;;;;;;;;;;;;;;5095917;28;19916;-69
2024/02/15 07:06:22;;;;;;;;;;;;;;;;;;5090150;28;20413;-69
2024/02/15 07:08:50;;;;;;;;;;;;;;;;;;5090696;28;19971;-68
2024/02/15 07:11:16;;;;;;;;;;;;;;;;;;5077865;28;19924;-68
2024/02/15 07:13:43;;;;;;;;;;;;;;;;;;5082828;28;19939;-68
2024/02/15 07:16:09;;;;;;;;;;;;;;;;;;5103687;28;19919;-68
2024/02/15 07:18:35;;;;;;;;;;;;;;;;;;5099216;28;19908;-66
2024/02/15 07:21:03;;;;;;;;;;;;;;;;;;5080727;28;19935;-67
2024/02/15 07:23:29;;;;;;;;;;;;;;;;;;5107672;28;19944;-68
2024/02/15 07:25:55;;;;;;;;;;;;;;;;;;5099095;28;19912;-70
2024/02/15 07:28:27;;;;;;;;;;;;;;;;;;5126161;27;19955;-70
2024/02/15 07:30:54;;;;;;;;;;;;;;;;;;5099335;28;20402;-69
2024/02/15 07:33:20;;;;;;;;;;;;;;;;;;5100148;28;19925;-71
2024/02/15 07:35:46;;;;;;;;;;;;;;;;;;5091200;28;19930;-68
2024/02/15 07:38:12;;;;;;;;;;;;;;;;;;5075482;28;19912;-68
2024/02/15 07:40:39;;;;;;;;;;;;;;;;;;5097017;28;19942;-69
2024/02/15 07:43:06;;;;;;;;;;;;;;;;;;5100026;28;20157;-68
2024/02/15 07:45:35;;;;;;;;;;;;;;;;;;5097583;28;19930;-68
2024/02/15 07:48:01;;;;;;;;;;;;;;;;;;5080453;28;19999;-68
2024/02/15 07:50:27;;;;;;;;;;;;;;;;;;5089437;28;20023;-70
2024/02/15 07:52:53;;;;;;;;;;;;;;;;;;5085011;28;20382;-68
2024/02/15 07:55:19;;;;;;;;;;;;;;;;;;5088560;28;19912;-69
2024/02/15 07:57:47;;;;;;;;;;;;;;;;;;5099361;28;20622;-70
2024/02/15 08:00:16;;;;;;;;;;;;;;;;;;5093493;28;19912;-70
2024/02/15 08:02:42;;;;;;;;;;;;;;;;;;5108637;28;19923;-70
2024/02/15 08:05:10;;;;;;;;;;;;;;;;;;5107217;28;20014;-68
2024/02/15 08:07:36;;;;;;;;;;;;;;;;;;5090438;28;19919;-68
2024/02/15 08:10:03;;;;;;;;;;;;;;;;;;5102124;28;19912;-69
2024/02/15 08:12:30;;;;;;;;;;;;;;;;;;5110558;28;19908;-69
2024/02/15 08:14:57;;;;;;;;;;;;;;;;;;5111592;28;19927;-69
2024/02/15 08:17:25;;;;;;;;;;;;;;;;;;5109268;28;20031;-69
2024/02/15 08:19:51;;;;;;;;;;;;;;;;;;5085243;28;20262;-68
2024/02/15 08:22:17;;;;;;;;;;;;;;;;;;5092333;28;19919;-67
2024/02/15 08:24:43;;;;;;;;;;;;;;;;;;5093787;28;19916;-68
2024/02/15 08:27:10;;;;;;;;;;;;;;;;;;5089635;28;19922;-68
2024/02/15 08:29:36;;;;;;;;;;;;;;;;;;5090234;28;19958;-71
2024/02/15 08:32:03;;;;;;;;;;;;;;;;;;5107803;28;20321;-70
2024/02/15 08:34:29;;;;;;;;;;;;;;;;;;5097697;28;19908;-70
2024/02/15 08:36:58;;;;;;;;;;;;;;;;;;5099023;28;19934;-69
2024/02/15 08:39:24;;;;;;;;;;;;;;;;;;5097532;28;20419;-69
2024/02/15 08:41:50;;;;;;;;;;;;;;;;;;5102751;28;20048;-70
2024/02/15 08:44:19;;;;;;;;;;;;;;;;;;5094067;28;19923;-71
2024/02/15 08:46:45;;;;;;;;;;;;;;;;;;5079729;28;19951;-72
2024/02/15 08:49:13;;;;;;;;;;;;;;;;;;5098694;28;20666;-71
2024/02/15 08:51:39;;;;;;;;;;;;;;;;;;5100300;28;19920;-72
2024/02/15 08:54:05;;;;;;;;;;;;;;;;;;5094083;28;19912;-71
2024/02/15 08:56:33;;;;;;;;;;;;;;;;;;5091419;28;20269;-74
2024/02/15 08:59:00;;;;;;;;;;;;;;;;;;5093831;28;20426;-72
2024/02/15 09:01:26;;;;;;;;;;;;;;;;;;5091235;28;19922;-72
2024/02/15 09:03:53;;;;;;;;;;;;;;;;;;5092861;28;19912;-72
2024/02/15 09:06:19;;;;;;;;;;;;;;;;;;5108821;28;19908;-71
2024/02/15 09:08:46;;;;;;;;;;;;;;;;;;5107948;28;19920;-69
2024/02/15 09:11:13;;;;;;;;;;;;;;;;;;5091353;28;19916;-70
2024/02/15 09:13:39;;;;;;;;;;;;;;;;;;5094924;28;19916;-72
2024/02/15 09:16:05;;;;;;;;;;;;;;;;;;5098678;28;19908;-71
2024/02/15 09:18:33;;;;;;;;;;;;;;;;;;5099094;28;19918;-75
2024/02/15 09:21:00;;;;;;;;;;;;;;;;;;5112348;28;19923;-76
2024/02/15 09:23:26;;;;;;;;;;;;;;;;;;5101495;28;19916;-75
2024/02/15 09:25:52;;;;;;;;;;;;;;;;;;5104651;28;19942;-76
2024/02/15 09:28:23;;;;;;;;;;;;;;;;;;5102770;28;20023;-76
2024/02/15 09:30:51;;;;;;;;;;;;;;;;;;5104738;28;19931;-77
2024/02/15 09:33:18;;;;;;;;;;;;;;;;;;5094292;28;19916;-77
2024/02/15 09:35:44;;;;;;;;;;;;;;;;;;5095084;28;20014;-76
2024/02/15 09:38:18;;;;;;;;;;;;;;;;;;5102745;28;19920;-75
2024/02/15 09:40:45;;;;;;;;;;;;;;;;;;5105417;28;19916;-76
2024/02/15 09:43:14;;;;;;;;;;;;;;;;;;5097248;28;19958;-78
2024/02/15 09:45:41;;;;;;;;;;;;;;;;;;5086298;27;19969;-77
2024/02/15 09:48:08;;;;;;;;;;;;;;;;;;5091838;28;19922;-77
2024/02/15 09:50:35;;;;;;;;;;;;;;;;;;5103636;28;19916;-78
2024/02/15 09:53:02;;;;;;;;;;;;;;;;;;5094029;28;19917;-76
2024/02/15 09:55:28;;;;;;;;;;;;;;;;;;5105037;28;19922;-78
2024/02/15 09:57:55;;;;;;;;;;;;;;;;;;5098523;28;20376;-77
2024/02/15 10:00:21;;;;;;;;;;;;;;;;;;5100211;28;19966;-79
2024/02/15 10:02:47;;;;;;;;;;;;;;;;;;5100567;28;19949;-77
2024/02/15 10:05:13;;;;;;;;;;;;;;;;;;5101552;28;19912;-77
2024/02/15 10:07:39;;;;;;;;;;;;;;;;;;5097629;28;19958;-77
2024/02/15 10:10:05;;;;;;;;;;;;;;;;;;5100809;28;20210;-77
2024/02/15 10:12:31;;;;;;;;;;;;;;;;;;5102071;28;19967;-78
2024/02/15 10:14:57;;;;;;;;;;;;;;;;;;5104776;28;20538;-76
2024/02/15 10:17:24;;;;;;;;;;;;;;;;;;5094833;28;20477;-76
2024/02/15 10:19:49;;;;;;;;;;;;;;;;;;5084613;28;20003;-76
2024/02/15 10:22:16;;;;;;;;;;;;;;;;;;5090656;28;20031;-78
2024/02/15 10:24:42;;;;;;;;;;;;;;;;;;5092576;28;19966;-78
2024/02/15 10:27:10;;;;;;;;;;;;;;;;;;5090721;28;19912;-78
2024/02/15 10:29:36;;;;;;;;;;;;;;;;;;5098272;28;19911;-76
2024/02/15 10:32:02;;;;;;;;;;;;;;;;;;5113624;28;20375;-77
2024/02/15 10:34:28;;;;;;;;;;;;;;;;;;5113741;28;19908;-77
2024/02/15 10:36:56;;;;;;;;;;;;;;;;;;5112670;28;19912;-76
2024/02/15 10:39:23;;;;;;;;;;;;;;;;;;5112646;28;19912;-77
2024/02/15 10:41:49;;;;;;;;;;;;;;;;;;5111049;28;19956;-77
2024/02/15 10:44:15;;;;;;;;;;;;;;;;;;5111643;28;19998;-78
2024/02/15 10:46:41;;;;;;;;;;;;;;;;;;5110318;28;19915;-78
2024/02/15 10:49:07;;;;;;;;;;;;;;;;;;5091317;28;19912;-78
2024/02/15 10:51:33;;;;;;;;;;;;;;;;;;5091337;28;19969;-78
2024/02/15 10:53:59;;;;;;;;;;;;;;;;;;5090306;28;19915;-78
2024/02/15 10:56:26;;;;;;;;;;;;;;;;;;5093817;28;20004;-78
2024/02/15 10:58:52;;;;;;;;;;;;;;;;;;5093450;28;19912;-78
2024/02/15 11:01:18;;;;;;;;;;;;;;;;;;5111679;28;19915;-78
2024/02/15 11:03:47;;;;;;;;;;;;;;;;;;5112009;28;19955;-78
2024/02/15 11:06:13;;;;;;;;;;;;;;;;;;5111447;28;19911;-78
2024/02/15 11:08:39;;;;;;;;;;;;;;;;;;5107546;28;19931;-79
2024/02/15 11:11:05;;;;;;;;;;;;;;;;;;5101895;28;19916;-78
2024/02/15 11:13:31;;;;;;;;;;;;;;;;;;5091052;28;19908;-79
2024/02/15 11:15:58;;;;;;;;;;;;;;;;;;5091410;28;20007;-73
2024/02/15 11:18:30;;;;;;;;;;;;;;;;;;5095210;28;19938;-72
2024/02/15 11:20:59;;;;;;;;;;;;;;;;;;5098734;28;19922;-71
2024/02/15 11:23:28;;;;;;;;;;;;;;;;;;5092729;28;19912;-73
2024/02/15 11:25:56;;;;;;;;;;;;;;;;;;5096234;28;19918;-73
2024/02/15 11:28:22;;;;;;;;;;;;;;;;;;5101690;28;19993;-70
2024/02/15 11:30:48;;;;;;;;;;;;;;;;;;5096475;28;19920;-71
2024/02/15 11:33:13;;;;;;;;;;;;;;;;;;5105693;28;19912;-73
2024/02/15 11:35:39;;;;;;;;;;;;;;;;;;5107518;28;19919;-77
2024/02/15 11:38:09;;;;;;;;;;;;;;;;;;5109858;28;19919;-77
2024/02/15 11:40:35;;;;;;;;;;;;;;;;;;5109046;28;20523;-78
2024/02/15 11:43:04;;;;;;;;;;;;;;;;;;5105462;28;19937;-77
2024/02/15 11:45:37;;;;;;;;;;;;;;;;;;5089619;28;19912;-77
2024/02/15 11:48:03;;;;;;;;;;;;;;;;;;5092797;28;19916;-77
2024/02/15 11:50:29;;;;;;;;;;;;;;;;;;5094252;28;19908;-77
2024/02/15 11:56:28;;;;;;;;;;;;;;;;;;5106099;27;19916;-74
2024/02/15 11:59:42;;;;;;;;;;;;;;;;;;5109232;27;19920;-74
2024/02/15 12:20:42;;;;;;;;;;;;;;;;;;5088565;27;20303;-73
2024/02/15 12:23:09;;;;;;;;;;;;;;;;;;5088262;28;19912;-71
2024/02/15 12:25:35;;;;;;;;;;;;;;;;;;5085826;28;19912;-73
2024/02/15 12:28:04;;;;;;;;;;;;;;;;;;5087097;28;19919;-72
2024/02/15 12:36:42;;;;;;;;;;;;;;;;;;5110520;27;19912;-70
2024/02/15 12:41:02;;;;;;;;;;;;;;;;;;5090308;27;19923;-72
2024/02/15 12:43:28;;;;;;;;;;;;;;;;;;5089629;28;19938;-73
2024/02/15 12:45:56;;;;;;;;;;;;;;;;;;5089907;28;19931;-73
2024/02/15 12:49:00;;;;;;;;;;;;;;;;;;5088546;27;19920;-73
2024/02/15 12:53:07;;;;;;;;;;;;;;;;;;5130352;27;19938;-73
2024/02/15 12:58:50;;;;;;;;;;;;;;;;;;5069163;28;19921;-72
2024/02/15 13:01:16;;;;;;;;;;;;;;;;;;5068367;28;19967;-72
2024/02/15 13:04:51;;;;;;;;;;;;;;;;;;5089993;27;19917;-71
2024/02/15 13:07:51;;;;;;;;;;;;;;;;;;4851682;27;7875075;-73
2024/02/15 13:12:35;;;;;;;;;;;;;;;;;;5126116;27;19920;-72
2024/02/15 13:15:03;;;;;;;;;;;;;;;;;;5123160;28;20026;-73
2024/02/15 13:18:59;;;;;;;;;;;;;;;;;;5089679;27;20370;-70
2024/02/15 13:23:01;;;;;;;;;;;;;;;;;;5095978;27;20299;-72
2024/02/15 13:25:27;;;;;;;;;;;;;;;;;;5099188;28;20018;-74
2024/02/15 13:27:53;;;;;;;;;;;;;;;;;;5094988;28;20432;-73
2024/02/15 13:30:23;;;;;;;;;;;;;;;;;;5089034;28;20307;-72
2024/02/15 13:35:13;;;;;;;;;;;;;;;;;;5090401;27;19938;-71
2024/02/15 13:38:31;;;;;;;;;;;;;;;;;;5111402;27;19916;-70
2024/02/15 13:40:59;;;;;;;;;;;;;;;;;;5110833;28;19912;-72
2024/02/15 13:44:16;;;;;;;;;;;;;;;;;;5070846;28;19917;-72
2024/02/15 13:46:42;;;;;;;;;;;;;;;;;;5068576;28;20406;-73
2024/02/15 13:51:39;;;;;;;;;;;;;;;;;;5110785;27;19916;-73
2024/02/15 13:55:00;;;;;;;;;;;;;;;;;;5152164;27;19918;-70
2024/02/15 13:57:26;;;;;;;;;;;;;;;;;;5152192;27;19962;-69
2024/02/15 13:59:52;;;;;;;;;;;;;;;;;;5150368;27;19907;-71
2024/02/15 14:07:11;;;;;;;;;;;;;;;;;;5110624;27;20376;-75
2024/02/15 14:10:12;;;;;;;;;;;;;;;;;;5089387;28;19923;-75
2024/02/15 14:12:39;;;;;;;;;;;;;;;;;;5089240;28;19950;-75
2024/02/15 14:16:09;;;;;;;;;;;;;;;;;;5088933;27;19923;-77
2024/02/15 14:18:35;;;;;;;;;;;;;;;;;;5088109;28;20295;-74
2024/02/15 14:21:01;;;;;;;;;;;;;;;;;;5089773;28;19954;-74
2024/02/15 14:23:27;;;;;;;;;;;;;;;;;;5090972;28;19919;-75
2024/02/15 14:25:53;;;;;;;;;;;;;;;;;;5090948;28;20372;-75
2024/02/15 14:28:19;;;;;;;;;;;;;;;;;;5090981;28;19948;-75
2024/02/15 14:33:00;;;;;;;;;;;;;;;;;;5091571;27;20249;-77
2024/02/15 14:35:28;;;;;;;;;;;;;;;;;;5091108;28;20059;-75
2024/02/15 14:38:37;;;;;;;;;;;;;;;;;;5090539;27;19916;-76
2024/02/15 14:42:46;;;;;;;;;;;;;;;;;;5091033;27;19917;-76
2024/02/15 14:45:11;;;;;;;;;;;;;;;;;;5090905;28;20003;-76
2024/02/15 14:47:37;;;;;;;;;;;;;;;;;;5090995;28;20284;-76
2024/02/15 14:50:03;;;;;;;;;;;;;;;;;;5090664;28;19931;-76
2024/02/15 14:52:31;;;;;;;;;;;;;;;;;;5090918;28;19961;-75
2024/02/15 14:55:26;;;;;;;;;;;;;;;;;;5091012;27;20025;-76
2024/02/15 14:59:10;;;;;;;;;;;;;;;;;;5090847;27;19912;-76
2024/02/15 15:01:37;;;;;;;;;;;;;;;;;;5091073;28;19991;-75
2024/02/15 15:16:00;;;;;;;;;;;;;;;;;;5091866;27;20301;-74
2024/02/15 15:18:27;;;;;;;;;;;;;;;;;;5091155;28;19935;-76
2024/02/15 15:22:31;;;;;;;;;;;;;;;;;;5091416;28;19912;-74
2024/02/15 15:24:57;;;;;;;;;;;;;;;;;;5090952;28;20384;-76
2024/02/15 15:28:48;;;;;;;;;;;;;;;;;;5111869;27;20384;-75
2024/02/15 15:32:01;;;;;;;;;;;;;;;;;;5091047;27;20398;-75
2024/02/15 15:34:27;;;;;;;;;;;;;;;;;;5091378;28;19974;-75
2024/02/15 15:36:54;;;;;;;;;;;;;;;;;;5091186;28;20364;-75
2024/02/15 15:39:20;;;;;;;;;;;;;;;;;;5090600;28;19908;-76
2024/02/15 15:42:14;;;;;;;;;;;;;;;;;;5091844;28;19916;-76
2024/02/15 15:44:40;;;;;;;;;;;;;;;;;;5091117;28;19912;-75
2024/02/15 15:49:31;;;;;;;;;;;;;;;;;;5152767;27;19916;-77
2024/02/15 15:52:35;;;;;;;;;;;;;;;;;;5091233;27;19917;-74
2024/02/15 15:56:19;;;;;;;;;;;;;;;;;;5091684;27;19922;-77
2024/02/15 15:58:47;;;;;;;;;;;;;;;;;;5091508;28;19958;-75
2024/02/15 16:01:13;;;;;;;;;;;;;;;;;;5095355;28;19916;-77
2024/02/15 16:03:39;;;;;;;;;;;;;;;;;;5091551;28;19913;-77
2024/02/15 16:06:07;;;;;;;;;;;;;;;;;;5092416;28;19908;-75
2024/02/15 16:08:33;;;;;;;;;;;;;;;;;;5090124;28;20369;-76
2024/02/15 16:10:59;;;;;;;;;;;;;;;;;;5092119;28;20003;-76
2024/02/15 16:13:26;;;;;;;;;;;;;;;;;;5091547;28;19916;-78
2024/02/15 16:15:53;;;;;;;;;;;;;;;;;;5090995;28;20407;-77
2024/02/15 16:18:19;;;;;;;;;;;;;;;;;;5090942;28;19913;-76
2024/02/15 16:20:45;;;;;;;;;;;;;;;;;;5090546;28;19975;-76
2024/02/15 16:23:11;;;;;;;;;;;;;;;;;;5091338;28;20353;-76
2024/02/15 16:25:37;;;;;;;;;;;;;;;;;;5090825;28;20057;-76
2024/02/15 16:28:06;;;;;;;;;;;;;;;;;;5089244;28;19912;-76
2024/02/15 16:30:33;;;;;;;;;;;;;;;;;;5090778;28;19908;-75
2024/02/15 16:32:59;;;;;;;;;;;;;;;;;;5090881;28;19920;-75
2024/02/15 16:35:26;;;;;;;;;;;;;;;;;;5090158;28;19916;-77
2024/02/15 16:37:52;;;;;;;;;;;;;;;;;;5089342;28;19909;-75
2024/02/15 16:40:18;;;;;;;;;;;;;;;;;;5090939;28;19916;-76
2024/02/15 16:42:47;;;;;;;;;;;;;;;;;;5090332;28;19950;-76
2024/02/15 16:45:12;;;;;;;;;;;;;;;;;;5090556;28;19967;-76
2024/02/15 16:47:38;;;;;;;;;;;;;;;;;;5090552;28;19912;-77
2024/02/15 16:50:07;;;;;;;;;;;;;;;;;;5090072;28;19914;-76
2024/02/15 16:52:33;;;;;;;;;;;;;;;;;;5090454;28;20380;-76
2024/02/15 16:55:00;;;;;;;;;;;;;;;;;;5099697;28;19924;-76
2024/02/15 16:57:26;;;;;;;;;;;;;;;;;;5110306;28;19911;-76
2024/02/15 16:59:52;;;;;;;;;;;;;;;;;;5110605;28;19960;-76
2024/02/15 17:02:18;;;;;;;;;;;;;;;;;;5110801;28;19908;-76
2024/02/15 17:04:44;;;;;;;;;;;;;;;;;;5110244;28;19908;-76
2024/02/15 17:07:10;;;;;;;;;;;;;;;;;;5100229;28;19915;-76
2024/02/15 17:09:36;;;;;;;;;;;;;;;;;;5096880;28;19909;-76
2024/02/15 17:12:06;;;;;;;;;;;;;;;;;;5096408;28;20272;-76
2024/02/15 17:14:31;;;;;;;;;;;;;;;;;;5078380;28;20390;-76
2024/02/15 17:16:58;;;;;;;;;;;;;;;;;;5096295;28;20010;-75
2024/02/15 17:19:24;;;;;;;;;;;;;;;;;;5096931;28;19998;-76
2024/02/15 17:21:50;;;;;;;;;;;;;;;;;;5096946;28;20010;-75
2024/02/15 17:24:18;;;;;;;;;;;;;;;;;;5096620;28;19916;-77
2024/02/15 17:26:44;;;;;;;;;;;;;;;;;;5096637;28;19915;-75
2024/02/15 17:29:10;;;;;;;;;;;;;;;;;;5096815;28;19916;-74
2024/02/15 17:31:36;;;;;;;;;;;;;;;;;;5096231;28;19916;-75
2024/02/15 17:34:03;;;;;;;;;;;;;;;;;;5096614;28;20020;-75
2024/02/15 17:36:29;;;;;;;;;;;;;;;;;;5096407;28;20002;-75
2024/02/15 17:38:55;;;;;;;;;;;;;;;;;;5095920;28;19944;-75
2024/02/15 17:41:21;;;;;;;;;;;;;;;;;;5096282;28;19954;-75
2024/02/15 17:43:47;;;;;;;;;;;;;;;;;;5078159;28;19998;-74
2024/02/15 17:46:13;;;;;;;;;;;;;;;;;;5095764;28;20283;-75
2024/02/15 17:48:41;;;;;;;;;;;;;;;;;;5096281;28;20050;-74
2024/02/15 17:51:07;;;;;;;;;;;;;;;;;;5096267;28;19908;-74
2024/02/15 17:53:35;;;;;;;;;;;;;;;;;;5077393;28;19915;-75
2024/02/15 17:56:01;;;;;;;;;;;;;;;;;;5077601;28;19920;-75
2024/02/15 17:58:27;;;;;;;;;;;;;;;;;;5096101;28;20323;-77
2024/02/15 18:00:53;;;;;;;;;;;;;;;;;;5095429;28;20372;-75
2024/02/15 18:03:19;;;;;;;;;;;;;;;;;;5095794;28;20447;-76
2024/02/15 18:05:46;;;;;;;;;;;;;;;;;;5095801;28;19951;-75
2024/02/15 18:08:12;;;;;;;;;;;;;;;;;;5095446;28;19909;-75
2024/02/15 18:10:38;;;;;;;;;;;;;;;;;;5095780;28;19954;-76
2024/02/15 18:13:04;;;;;;;;;;;;;;;;;;5077065;28;20284;-76
2024/02/15 18:15:33;;;;;;;;;;;;;;;;;;5095926;28;19978;-76
2024/02/15 18:17:59;;;;;;;;;;;;;;;;;;5094597;28;20363;-74
2024/02/15 18:20:25;;;;;;;;;;;;;;;;;;5095420;28;20019;-76